NKS614 KDTW-KLAS
Flight info
| Callsign | NKS614 |
|---|---|
| Flight time | 3h 45m |
| Altitude | 32000 |
| Route | KAYLN3 SMUUV OBK IOW J60 LNK/N0461F340 J60 HVE GGAPP CHOWW4 |
| Aircraft | A321/M-SDE3FGHIRWY/LB1 |
Departure
| Time | 2026-05-07 03:23 |
|---|---|
| Airport | Detroit Metropolitan Wayne County Airport (KDTW) |
Arrival
| Time | 2026-05-07 07:08 |
|---|---|
| Airport | Harry Reid International Airport (KLAS) |
| Time | Latitude | Longitude | Altitude | Speed | Heading |
|---|---|---|---|---|---|
| 2026-05-07 03:05 | 42.22412 | -83.35037 | 646 ft | 0 kts | 129° |
| 2026-05-07 03:09 | 42.22413 | -83.35037 | 646 ft | 0 kts | 129° |
| 2026-05-07 03:12 | 42.22418 | -83.35047 | 646 ft | 4 kts | 129° |
| 2026-05-07 03:12 | 42.22432 | -83.35070 | 646 ft | 3 kts | 129° |
| 2026-05-07 03:12 | 42.22450 | -83.35094 | 646 ft | 4 kts | 154° |
| 2026-05-07 03:12 | 42.22470 | -83.35096 | 646 ft | 3 kts | 209° |
| 2026-05-07 03:13 | 42.22489 | -83.35082 | 646 ft | 0 kts | 209° |
| 2026-05-07 03:15 | 42.22475 | -83.35093 | 646 ft | 7 kts | 210° |
| 2026-05-07 03:15 | 42.22459 | -83.35107 | 646 ft | 10 kts | 214° |
| 2026-05-07 03:16 | 42.22399 | -83.35200 | 646 ft | 14 kts | 233° |
| 2026-05-07 03:16 | 42.22361 | -83.35270 | 647 ft | 14 kts | 228° |
| 2026-05-07 03:16 | 42.22282 | -83.35351 | 648 ft | 14 kts | 216° |
| 2026-05-07 03:16 | 42.22165 | -83.35440 | 646 ft | 15 kts | 208° |
| 2026-05-07 03:17 | 42.22073 | -83.35507 | 646 ft | 15 kts | 208° |
| 2026-05-07 03:17 | 42.21978 | -83.35577 | 645 ft | 16 kts | 208° |
| 2026-05-07 03:17 | 42.21912 | -83.35574 | 645 ft | 15 kts | 150° |
| 2026-05-07 03:17 | 42.21821 | -83.35493 | 645 ft | 8 kts | 112° |
| 2026-05-07 03:18 | 42.21822 | -83.35444 | 645 ft | 8 kts | 88° |
| 2026-05-07 03:18 | 42.21820 | -83.35365 | 645 ft | 9 kts | 105° |
| 2026-05-07 03:18 | 42.21770 | -83.35330 | 644 ft | 10 kts | 187° |
| 2026-05-07 03:18 | 42.21698 | -83.35310 | 646 ft | 12 kts | 147° |
| 2026-05-07 03:19 | 42.21622 | -83.35217 | 646 ft | 11 kts | 137° |
| 2026-05-07 03:19 | 42.21567 | -83.35148 | 646 ft | 11 kts | 137° |
| 2026-05-07 03:19 | 42.21526 | -83.35107 | 646 ft | 11 kts | 148° |
| 2026-05-07 03:19 | 42.21458 | -83.35051 | 646 ft | 12 kts | 149° |
| 2026-05-07 03:20 | 42.21395 | -83.35001 | 648 ft | 9 kts | 148° |
| 2026-05-07 03:20 | 42.21333 | -83.34949 | 648 ft | 13 kts | 148° |
| 2026-05-07 03:20 | 42.21244 | -83.34953 | 645 ft | 14 kts | 207° |
| 2026-05-07 03:20 | 42.21150 | -83.35022 | 646 ft | 17 kts | 208° |
| 2026-05-07 03:21 | 42.21010 | -83.35125 | 647 ft | 17 kts | 208° |
| 2026-05-07 03:21 | 42.20938 | -83.35177 | 646 ft | 17 kts | 208° |
| 2026-05-07 03:21 | 42.20835 | -83.35197 | 645 ft | 17 kts | 131° |
| 2026-05-07 03:21 | 42.20839 | -83.35082 | 645 ft | 13 kts | 31° |
| 2026-05-07 03:22 | 42.20854 | -83.35072 | 644 ft | 10 kts | 28° |
| 2026-05-07 03:22 | 42.21131 | -83.34874 | 643 ft | 78 kts | 28° |
| 2026-05-07 03:22 | 42.21782 | -83.34388 | 647 ft | 134 kts | 28° |
| 2026-05-07 03:22 | 42.22736 | -83.33686 | 668 ft | 174 kts | 30° |
| 2026-05-07 03:23 | 42.23779 | -83.32918 | 1285 ft | 166 kts | 26° |
| 2026-05-07 03:23 | 42.24877 | -83.32545 | 1876 ft | 167 kts | 354° |
| 2026-05-07 03:23 | 42.26061 | -83.32979 | 2163 ft | 184 kts | 335° |
| 2026-05-07 03:23 | 42.27296 | -83.33619 | 2329 ft | 203 kts | 337° |
| 2026-05-07 03:24 | 42.28689 | -83.34298 | 2452 ft | 225 kts | 338° |
| 2026-05-07 03:24 | 42.30246 | -83.35027 | 2705 ft | 245 kts | 339° |
| 2026-05-07 03:24 | 42.31885 | -83.35772 | 3295 ft | 251 kts | 339° |
| 2026-05-07 03:24 | 42.33550 | -83.36520 | 3937 ft | 254 kts | 339° |
| 2026-05-07 03:25 | 42.35244 | -83.37281 | 4602 ft | 258 kts | 339° |
| 2026-05-07 03:25 | 42.36959 | -83.38047 | 5273 ft | 261 kts | 338° |
| 2026-05-07 03:25 | 42.38611 | -83.39037 | 5943 ft | 259 kts | 324° |
| 2026-05-07 03:25 | 42.39997 | -83.40563 | 6628 ft | 257 kts | 309° |
| 2026-05-07 03:26 | 42.41124 | -83.42456 | 7193 ft | 258 kts | 305° |
| 2026-05-07 03:26 | 42.42209 | -83.44346 | 7884 ft | 259 kts | 305° |
| 2026-05-07 03:26 | 42.43318 | -83.46277 | 8587 ft | 260 kts | 304° |
| 2026-05-07 03:26 | 42.44424 | -83.48207 | 9264 ft | 260 kts | 304° |
| 2026-05-07 03:27 | 42.45533 | -83.50160 | 9935 ft | 262 kts | 301° |
| 2026-05-07 03:27 | 42.46338 | -83.52349 | 10531 ft | 259 kts | 285° |
| 2026-05-07 03:27 | 42.46635 | -83.54743 | 11157 ft | 260 kts | 269° |
| 2026-05-07 03:27 | 42.46544 | -83.57250 | 11432 ft | 276 kts | 266° |
| 2026-05-07 03:28 | 42.46414 | -83.59957 | 11584 ft | 298 kts | 266° |
| 2026-05-07 03:28 | 42.46287 | -83.62803 | 11709 ft | 315 kts | 266° |
| 2026-05-07 03:28 | 42.46158 | -83.65849 | 11834 ft | 332 kts | 266° |
| 2026-05-07 03:28 | 42.46018 | -83.69055 | 11955 ft | 349 kts | 266° |
| 2026-05-07 03:29 | 42.45872 | -83.72385 | 12254 ft | 359 kts | 266° |
| 2026-05-07 03:29 | 42.45724 | -83.75780 | 12787 ft | 362 kts | 266° |
| 2026-05-07 03:29 | 42.45574 | -83.79200 | 13382 ft | 365 kts | 266° |
| 2026-05-07 03:29 | 42.45424 | -83.82634 | 13967 ft | 367 kts | 266° |
| 2026-05-07 03:30 | 42.45275 | -83.86045 | 14505 ft | 368 kts | 266° |
| 2026-05-07 03:30 | 42.45122 | -83.89504 | 15025 ft | 368 kts | 266° |
| 2026-05-07 03:30 | 42.44968 | -83.92964 | 15607 ft | 368 kts | 266° |
| 2026-05-07 03:30 | 42.44814 | -83.96414 | 16150 ft | 367 kts | 265° |
| 2026-05-07 03:31 | 42.44660 | -83.99866 | 16674 ft | 368 kts | 265° |
| 2026-05-07 03:31 | 42.44502 | -84.03320 | 17182 ft | 368 kts | 265° |
| 2026-05-07 03:31 | 42.44342 | -84.06791 | 17689 ft | 369 kts | 265° |
| 2026-05-07 03:31 | 42.44182 | -84.10254 | 18173 ft | 369 kts | 264° |
| 2026-05-07 03:32 | 42.44021 | -84.13728 | 18600 ft | 370 kts | 264° |
| 2026-05-07 03:32 | 42.43862 | -84.17205 | 19016 ft | 370 kts | 264° |
| 2026-05-07 03:32 | 42.43701 | -84.20642 | 19438 ft | 371 kts | 264° |
| 2026-05-07 03:32 | 42.43536 | -84.24119 | 19860 ft | 371 kts | 264° |
| 2026-05-07 03:33 | 42.43368 | -84.27609 | 20271 ft | 372 kts | 264° |
| 2026-05-07 03:33 | 42.43197 | -84.31104 | 20678 ft | 373 kts | 264° |
| 2026-05-07 03:33 | 42.43143 | -84.34625 | 21020 ft | 376 kts | 269° |
| 2026-05-07 03:33 | 42.43243 | -84.38163 | 21384 ft | 377 kts | 269° |
| 2026-05-07 03:34 | 42.43342 | -84.41711 | 21767 ft | 378 kts | 269° |
| 2026-05-07 03:34 | 42.43440 | -84.45268 | 22143 ft | 378 kts | 269° |
| 2026-05-07 03:34 | 42.43534 | -84.48778 | 22508 ft | 379 kts | 269° |
| 2026-05-07 03:34 | 42.43626 | -84.52344 | 22881 ft | 379 kts | 269° |
| 2026-05-07 03:35 | 42.43716 | -84.55917 | 23259 ft | 380 kts | 269° |
| 2026-05-07 03:35 | 42.43807 | -84.59494 | 23638 ft | 380 kts | 269° |
| 2026-05-07 03:35 | 42.43898 | -84.63056 | 24059 ft | 378 kts | 269° |
| 2026-05-07 03:35 | 42.43986 | -84.66597 | 24482 ft | 375 kts | 269° |
| 2026-05-07 03:36 | 42.44074 | -84.70129 | 24839 ft | 376 kts | 269° |
| 2026-05-07 03:36 | 42.44161 | -84.73669 | 25126 ft | 377 kts | 269° |
| 2026-05-07 03:36 | 42.44246 | -84.77168 | 25483 ft | 376 kts | 269° |
| 2026-05-07 03:36 | 42.44331 | -84.80696 | 25881 ft | 374 kts | 269° |
| 2026-05-07 03:37 | 42.44411 | -84.84216 | 26298 ft | 373 kts | 269° |
| 2026-05-07 03:37 | 42.44488 | -84.87709 | 26708 ft | 371 kts | 269° |
| 2026-05-07 03:37 | 42.44566 | -84.91187 | 27127 ft | 369 kts | 269° |
| 2026-05-07 03:37 | 42.44641 | -84.94644 | 27528 ft | 367 kts | 269° |
| 2026-05-07 03:38 | 42.44716 | -84.98090 | 27943 ft | 365 kts | 269° |
| 2026-05-07 03:38 | 42.44790 | -85.01466 | 28349 ft | 363 kts | 268° |
| 2026-05-07 03:38 | 42.44862 | -85.04867 | 28784 ft | 361 kts | 268° |
| 2026-05-07 03:38 | 42.44932 | -85.08262 | 29064 ft | 362 kts | 269° |
| 2026-05-07 03:39 | 42.45001 | -85.11683 | 29329 ft | 363 kts | 269° |
| 2026-05-07 03:39 | 42.45072 | -85.15103 | 29662 ft | 363 kts | 268° |
| 2026-05-07 03:39 | 42.45144 | -85.18512 | 30037 ft | 361 kts | 268° |
| 2026-05-07 03:39 | 42.45216 | -85.21904 | 30352 ft | 360 kts | 268° |
| 2026-05-07 03:40 | 42.45283 | -85.25281 | 30639 ft | 359 kts | 268° |
| 2026-05-07 03:40 | 42.45346 | -85.28655 | 30909 ft | 358 kts | 268° |
| 2026-05-07 03:40 | 42.45406 | -85.31975 | 31171 ft | 357 kts | 268° |
| 2026-05-07 03:40 | 42.45467 | -85.35326 | 31432 ft | 356 kts | 268° |
| 2026-05-07 03:41 | 42.45530 | -85.38679 | 31681 ft | 355 kts | 268° |
| 2026-05-07 03:41 | 42.45589 | -85.42024 | 31916 ft | 355 kts | 268° |
| 2026-05-07 03:41 | 42.45647 | -85.45377 | 32009 ft | 357 kts | 268° |
| 2026-05-07 03:42 | 42.45764 | -85.52170 | 32027 ft | 363 kts | 268° |
| 2026-05-07 03:42 | 42.45878 | -85.59011 | 32028 ft | 363 kts | 268° |
| 2026-05-07 03:43 | 42.45987 | -85.65804 | 32028 ft | 364 kts | 268° |
| 2026-05-07 03:43 | 42.46091 | -85.72653 | 32028 ft | 364 kts | 268° |
| 2026-05-07 03:44 | 42.46194 | -85.79497 | 32033 ft | 364 kts | 268° |
| 2026-05-07 03:44 | 42.46292 | -85.86353 | 32036 ft | 364 kts | 268° |
| 2026-05-07 03:45 | 42.46391 | -85.93170 | 32039 ft | 365 kts | 268° |
| 2026-05-07 03:45 | 42.46483 | -86.00033 | 32041 ft | 364 kts | 268° |
| 2026-05-07 03:46 | 42.46565 | -86.06894 | 32045 ft | 364 kts | 268° |
| 2026-05-07 03:46 | 42.46503 | -86.13744 | 32043 ft | 362 kts | 261° |
| 2026-05-07 03:47 | 42.45655 | -86.20463 | 32046 ft | 363 kts | 260° |
| 2026-05-07 03:47 | 42.44808 | -86.27159 | 32030 ft | 364 kts | 260° |
| 2026-05-07 03:48 | 42.43953 | -86.33911 | 32024 ft | 364 kts | 260° |
| 2026-05-07 03:48 | 42.43086 | -86.40671 | 32026 ft | 365 kts | 260° |
| 2026-05-07 03:49 | 42.42214 | -86.47443 | 32030 ft | 365 kts | 260° |
| 2026-05-07 03:49 | 42.41343 | -86.54160 | 32035 ft | 365 kts | 259° |
| 2026-05-07 03:50 | 42.40459 | -86.60941 | 32044 ft | 367 kts | 260° |
| 2026-05-07 03:50 | 42.39570 | -86.67751 | 32035 ft | 368 kts | 260° |
| 2026-05-07 03:51 | 42.38679 | -86.74591 | 32034 ft | 370 kts | 259° |
| 2026-05-07 03:51 | 42.37782 | -86.81393 | 32046 ft | 370 kts | 260° |
| 2026-05-07 03:52 | 42.36873 | -86.88253 | 32049 ft | 371 kts | 259° |
| 2026-05-07 03:52 | 42.35963 | -86.95087 | 32049 ft | 367 kts | 259° |
| 2026-05-07 03:53 | 42.35052 | -87.01868 | 32059 ft | 367 kts | 259° |
| 2026-05-07 03:53 | 42.34145 | -87.08606 | 32064 ft | 367 kts | 259° |
| 2026-05-07 03:54 | 42.33227 | -87.15383 | 32061 ft | 367 kts | 259° |
| 2026-05-07 03:54 | 42.32314 | -87.22155 | 32061 ft | 366 kts | 259° |
| 2026-05-07 03:55 | 42.31397 | -87.28931 | 32063 ft | 367 kts | 259° |
| 2026-05-07 03:55 | 42.30473 | -87.35708 | 32079 ft | 367 kts | 259° |
| 2026-05-07 03:56 | 42.29541 | -87.42456 | 32050 ft | 369 kts | 259° |
| 2026-05-07 03:56 | 42.28593 | -87.49284 | 32044 ft | 370 kts | 259° |
| 2026-05-07 03:57 | 42.27647 | -87.56129 | 32051 ft | 371 kts | 259° |
| 2026-05-07 03:57 | 42.26695 | -87.62983 | 32051 ft | 371 kts | 259° |
| 2026-05-07 03:58 | 42.25733 | -87.69839 | 32060 ft | 372 kts | 259° |
| 2026-05-07 03:58 | 42.24770 | -87.76669 | 32061 ft | 373 kts | 259° |
| 2026-05-07 03:59 | 42.23795 | -87.83554 | 32056 ft | 374 kts | 259° |
| 2026-05-07 03:59 | 42.22811 | -87.90439 | 32050 ft | 373 kts | 259° |
| 2026-05-07 04:00 | 42.21802 | -87.97322 | 32051 ft | 375 kts | 258° |
| 2026-05-07 04:00 | 42.20633 | -88.04116 | 32055 ft | 374 kts | 257° |
| 2026-05-07 04:01 | 42.19404 | -88.10907 | 32048 ft | 372 kts | 257° |
| 2026-05-07 04:01 | 42.18187 | -88.17721 | 32025 ft | 375 kts | 257° |
| 2026-05-07 04:02 | 42.16982 | -88.24556 | 32057 ft | 374 kts | 257° |
| 2026-05-07 04:02 | 42.15792 | -88.31304 | 32068 ft | 373 kts | 257° |
| 2026-05-07 04:03 | 42.14583 | -88.38112 | 32081 ft | 374 kts | 257° |
| 2026-05-07 04:03 | 42.13366 | -88.44928 | 32091 ft | 373 kts | 257° |
| 2026-05-07 04:04 | 42.12149 | -88.51733 | 32089 ft | 374 kts | 257° |
| 2026-05-07 04:04 | 42.10922 | -88.58545 | 32094 ft | 375 kts | 257° |
| 2026-05-07 04:05 | 42.09695 | -88.65317 | 32100 ft | 375 kts | 257° |
| 2026-05-07 04:05 | 42.08461 | -88.72134 | 32104 ft | 375 kts | 257° |
| 2026-05-07 04:06 | 42.07226 | -88.78944 | 32105 ft | 375 kts | 257° |
| 2026-05-07 04:06 | 42.05980 | -88.85759 | 32112 ft | 375 kts | 257° |
| 2026-05-07 04:07 | 42.04740 | -88.92526 | 32104 ft | 375 kts | 257° |
| 2026-05-07 04:07 | 42.03491 | -88.99355 | 32104 ft | 376 kts | 257° |
| 2026-05-07 04:08 | 42.02235 | -89.06177 | 32097 ft | 376 kts | 257° |
| 2026-05-07 04:08 | 42.00970 | -89.13007 | 32108 ft | 376 kts | 257° |
| 2026-05-07 04:09 | 41.99705 | -89.19833 | 32110 ft | 376 kts | 257° |
| 2026-05-07 04:09 | 41.98441 | -89.26598 | 32059 ft | 376 kts | 256° |
| 2026-05-07 04:10 | 41.97171 | -89.33416 | 32091 ft | 375 kts | 257° |
| 2026-05-07 04:10 | 41.95895 | -89.40215 | 32105 ft | 375 kts | 256° |
| 2026-05-07 04:11 | 41.94616 | -89.46996 | 32110 ft | 373 kts | 256° |
| 2026-05-07 04:11 | 41.93348 | -89.53696 | 32107 ft | 373 kts | 256° |
| 2026-05-07 04:12 | 41.92071 | -89.60440 | 32107 ft | 373 kts | 256° |
| 2026-05-07 04:12 | 41.90788 | -89.67191 | 32111 ft | 373 kts | 256° |
| 2026-05-07 04:13 | 41.89495 | -89.73944 | 32113 ft | 373 kts | 256° |
| 2026-05-07 04:13 | 41.88212 | -89.80636 | 32111 ft | 373 kts | 256° |
| 2026-05-07 04:14 | 41.86910 | -89.87369 | 32110 ft | 373 kts | 256° |
| 2026-05-07 04:14 | 41.85607 | -89.94114 | 32114 ft | 373 kts | 256° |
| 2026-05-07 04:15 | 41.84303 | -90.00858 | 32123 ft | 374 kts | 256° |
| 2026-05-07 04:15 | 41.82993 | -90.07606 | 32112 ft | 374 kts | 256° |
| 2026-05-07 04:16 | 41.81682 | -90.14323 | 32111 ft | 375 kts | 256° |
| 2026-05-07 04:16 | 41.80360 | -90.21087 | 32106 ft | 376 kts | 256° |
| 2026-05-07 04:17 | 41.79031 | -90.27851 | 32107 ft | 375 kts | 256° |
| 2026-05-07 04:17 | 41.77694 | -90.34628 | 32110 ft | 376 kts | 256° |
| 2026-05-07 04:18 | 41.76369 | -90.41341 | 32121 ft | 375 kts | 256° |
| 2026-05-07 04:18 | 41.75032 | -90.48090 | 32112 ft | 375 kts | 256° |
| 2026-05-07 04:19 | 41.73692 | -90.54828 | 32111 ft | 374 kts | 256° |
| 2026-05-07 04:19 | 41.72356 | -90.61543 | 32104 ft | 373 kts | 256° |
| 2026-05-07 04:20 | 41.71015 | -90.68254 | 32100 ft | 373 kts | 256° |
| 2026-05-07 04:20 | 41.69673 | -90.74907 | 32112 ft | 373 kts | 256° |
| 2026-05-07 04:21 | 41.67642 | -90.84968 | 32088 ft | 374 kts | 256° |
| 2026-05-07 04:21 | 41.66276 | -90.91699 | 32088 ft | 376 kts | 256° |
| 2026-05-07 04:22 | 41.64913 | -90.98404 | 32093 ft | 377 kts | 255° |
| 2026-05-07 04:22 | 41.63535 | -91.05163 | 32095 ft | 377 kts | 256° |
| 2026-05-07 04:23 | 41.62153 | -91.11918 | 32101 ft | 377 kts | 255° |
| 2026-05-07 04:23 | 41.60758 | -91.18680 | 32104 ft | 378 kts | 255° |
| 2026-05-07 04:24 | 41.59372 | -91.25405 | 32108 ft | 378 kts | 255° |
| 2026-05-07 04:24 | 41.57973 | -91.32189 | 32109 ft | 379 kts | 255° |
| 2026-05-07 04:25 | 41.56568 | -91.38983 | 32113 ft | 380 kts | 255° |
| 2026-05-07 04:25 | 41.55146 | -91.45773 | 32087 ft | 380 kts | 255° |
| 2026-05-07 04:26 | 41.53729 | -91.52547 | 32112 ft | 378 kts | 255° |
| 2026-05-07 04:26 | 41.52331 | -91.59244 | 32113 ft | 377 kts | 255° |
| 2026-05-07 04:27 | 41.51446 | -91.66121 | 32120 ft | 377 kts | 262° |
| 2026-05-07 04:27 | 41.50799 | -91.73059 | 32118 ft | 377 kts | 262° |
| 2026-05-07 04:28 | 41.50150 | -91.80010 | 32114 ft | 378 kts | 262° |
| 2026-05-07 04:28 | 41.49495 | -91.86904 | 32110 ft | 377 kts | 262° |
| 2026-05-07 04:29 | 41.48826 | -91.93838 | 32115 ft | 377 kts | 262° |
| 2026-05-07 04:29 | 41.48165 | -92.00791 | 32100 ft | 378 kts | 262° |
| 2026-05-07 04:30 | 41.47493 | -92.07755 | 32093 ft | 379 kts | 262° |
| 2026-05-07 04:30 | 41.46820 | -92.14675 | 32086 ft | 379 kts | 262° |
| 2026-05-07 04:31 | 41.46140 | -92.21652 | 32088 ft | 380 kts | 262° |
| 2026-05-07 04:31 | 41.45449 | -92.28628 | 32094 ft | 379 kts | 262° |
| 2026-05-07 04:32 | 41.44756 | -92.35619 | 32094 ft | 381 kts | 262° |
| 2026-05-07 04:32 | 41.44057 | -92.42572 | 32082 ft | 382 kts | 262° |
| 2026-05-07 04:33 | 41.43355 | -92.49582 | 32086 ft | 383 kts | 262° |
| 2026-05-07 04:33 | 41.42648 | -92.56612 | 32088 ft | 383 kts | 262° |
| 2026-05-07 04:34 | 41.41933 | -92.63650 | 32091 ft | 383 kts | 261° |
| 2026-05-07 04:34 | 41.41208 | -92.70680 | 32073 ft | 384 kts | 262° |
| 2026-05-07 04:35 | 41.40490 | -92.77688 | 32082 ft | 385 kts | 262° |
| 2026-05-07 04:35 | 41.39760 | -92.84762 | 32085 ft | 386 kts | 261° |
| 2026-05-07 04:36 | 41.39024 | -92.91850 | 32084 ft | 387 kts | 261° |
| 2026-05-07 04:36 | 41.38282 | -92.98947 | 32093 ft | 387 kts | 262° |
| 2026-05-07 04:37 | 41.37538 | -93.05994 | 32093 ft | 388 kts | 262° |
| 2026-05-07 04:37 | 41.36771 | -93.13117 | 32081 ft | 390 kts | 261° |
| 2026-05-07 04:38 | 41.36001 | -93.20273 | 32072 ft | 391 kts | 261° |
| 2026-05-07 04:38 | 41.35228 | -93.27449 | 32081 ft | 392 kts | 261° |
| 2026-05-07 04:39 | 41.34455 | -93.34640 | 32084 ft | 393 kts | 261° |
| 2026-05-07 04:39 | 41.33681 | -93.41782 | 32102 ft | 392 kts | 261° |
| 2026-05-07 04:40 | 41.32894 | -93.48951 | 32099 ft | 392 kts | 261° |
| 2026-05-07 04:40 | 41.32102 | -93.56121 | 32095 ft | 392 kts | 261° |
| 2026-05-07 04:41 | 41.31313 | -93.63295 | 32092 ft | 392 kts | 261° |
| 2026-05-07 04:41 | 41.30514 | -93.70472 | 32105 ft | 393 kts | 261° |
| 2026-05-07 04:42 | 41.29714 | -93.77604 | 32098 ft | 393 kts | 261° |
| 2026-05-07 04:42 | 41.28907 | -93.84790 | 32086 ft | 394 kts | 262° |
| 2026-05-07 04:43 | 41.28089 | -93.92028 | 32048 ft | 397 kts | 262° |
| 2026-05-07 04:43 | 41.27263 | -93.99278 | 32078 ft | 397 kts | 262° |
| 2026-05-07 04:44 | 41.26434 | -94.06498 | 32095 ft | 397 kts | 262° |
| 2026-05-07 04:44 | 41.25598 | -94.13751 | 32096 ft | 397 kts | 262° |
| 2026-05-07 04:45 | 41.24753 | -94.21006 | 32077 ft | 397 kts | 262° |
| 2026-05-07 04:45 | 41.23908 | -94.28273 | 32066 ft | 399 kts | 262° |
| 2026-05-07 04:46 | 41.23058 | -94.35514 | 32068 ft | 400 kts | 262° |
| 2026-05-07 04:46 | 41.22194 | -94.42825 | 32071 ft | 401 kts | 262° |
| 2026-05-07 04:47 | 41.21329 | -94.50144 | 32075 ft | 402 kts | 262° |
| 2026-05-07 04:47 | 41.20453 | -94.57476 | 32076 ft | 402 kts | 262° |
| 2026-05-07 04:48 | 41.19573 | -94.64820 | 32068 ft | 404 kts | 262° |
| 2026-05-07 04:48 | 41.18688 | -94.72144 | 32067 ft | 405 kts | 262° |
| 2026-05-07 04:49 | 41.17786 | -94.79544 | 32067 ft | 407 kts | 262° |
| 2026-05-07 04:49 | 41.16882 | -94.86954 | 32067 ft | 407 kts | 262° |
| 2026-05-07 04:50 | 41.15974 | -94.94378 | 32070 ft | 408 kts | 262° |
| 2026-05-07 04:50 | 41.15067 | -95.01759 | 32063 ft | 409 kts | 263° |
| 2026-05-07 04:51 | 41.14146 | -95.09234 | 32061 ft | 411 kts | 263° |
| 2026-05-07 04:51 | 41.13209 | -95.16723 | 32060 ft | 412 kts | 263° |
| 2026-05-07 04:52 | 41.12263 | -95.24215 | 32066 ft | 412 kts | 263° |
| 2026-05-07 04:52 | 41.11325 | -95.31660 | 32067 ft | 412 kts | 263° |
| 2026-05-07 04:53 | 41.10379 | -95.39170 | 32050 ft | 414 kts | 264° |
| 2026-05-07 04:53 | 41.09420 | -95.46708 | 32052 ft | 416 kts | 264° |
| 2026-05-07 04:54 | 41.08443 | -95.54269 | 32056 ft | 417 kts | 264° |
| 2026-05-07 04:54 | 41.07472 | -95.61810 | 32072 ft | 418 kts | 264° |
| 2026-05-07 04:55 | 41.06494 | -95.69409 | 32080 ft | 419 kts | 264° |
| 2026-05-07 04:55 | 41.05499 | -95.77021 | 32051 ft | 420 kts | 264° |
| 2026-05-07 04:56 | 41.04494 | -95.84673 | 32058 ft | 422 kts | 264° |
| 2026-05-07 04:56 | 41.03492 | -95.92281 | 32068 ft | 423 kts | 264° |
| 2026-05-07 04:57 | 41.02482 | -95.99956 | 32072 ft | 423 kts | 264° |
| 2026-05-07 04:57 | 41.01472 | -96.07629 | 32080 ft | 423 kts | 264° |
| 2026-05-07 04:58 | 41.00445 | -96.15318 | 32057 ft | 425 kts | 264° |
| 2026-05-07 04:58 | 40.99409 | -96.22976 | 32060 ft | 426 kts | 264° |
| 2026-05-07 04:59 | 40.98361 | -96.30712 | 32069 ft | 427 kts | 264° |
| 2026-05-07 04:59 | 40.97311 | -96.38454 | 32080 ft | 428 kts | 264° |
| 2026-05-07 05:00 | 40.96258 | -96.46204 | 32095 ft | 428 kts | 264° |
| 2026-05-07 05:00 | 40.95191 | -96.53960 | 32073 ft | 429 kts | 264° |
| 2026-05-07 05:01 | 40.94118 | -96.61683 | 32052 ft | 430 kts | 264° |
| 2026-05-07 05:01 | 40.93037 | -96.69472 | 32069 ft | 431 kts | 264° |
| 2026-05-07 05:02 | 40.92003 | -96.77262 | 32078 ft | 429 kts | 266° |
| 2026-05-07 05:02 | 40.91257 | -96.85033 | 32064 ft | 428 kts | 268° |
| 2026-05-07 05:03 | 40.90602 | -96.92864 | 32063 ft | 429 kts | 268° |
| 2026-05-07 05:03 | 40.89894 | -97.00714 | 32072 ft | 430 kts | 267° |
| 2026-05-07 05:04 | 40.89132 | -97.08562 | 32076 ft | 431 kts | 267° |
| 2026-05-07 05:04 | 40.88359 | -97.16411 | 32081 ft | 431 kts | 267° |
| 2026-05-07 05:05 | 40.87598 | -97.24213 | 32090 ft | 431 kts | 267° |
| 2026-05-07 05:05 | 40.86828 | -97.32065 | 32097 ft | 431 kts | 267° |
| 2026-05-07 05:06 | 40.86051 | -97.39917 | 32097 ft | 431 kts | 267° |
| 2026-05-07 05:06 | 40.85264 | -97.47773 | 32099 ft | 431 kts | 267° |
| 2026-05-07 05:07 | 40.84476 | -97.55569 | 32081 ft | 431 kts | 267° |
| 2026-05-07 05:07 | 40.83682 | -97.63427 | 32047 ft | 431 kts | 267° |
| 2026-05-07 05:08 | 40.82884 | -97.71284 | 32053 ft | 432 kts | 267° |
| 2026-05-07 05:08 | 40.82081 | -97.79157 | 32064 ft | 433 kts | 267° |
| 2026-05-07 05:09 | 40.81277 | -97.86986 | 32074 ft | 434 kts | 267° |
| 2026-05-07 05:09 | 40.80460 | -97.94875 | 32078 ft | 434 kts | 267° |
| 2026-05-07 05:10 | 40.79633 | -98.02765 | 32058 ft | 434 kts | 267° |
| 2026-05-07 05:10 | 40.78795 | -98.10660 | 32067 ft | 435 kts | 267° |
| 2026-05-07 05:11 | 40.77960 | -98.18514 | 32088 ft | 435 kts | 266° |
| 2026-05-07 05:11 | 40.77115 | -98.26417 | 32096 ft | 435 kts | 266° |
| 2026-05-07 05:12 | 40.76263 | -98.34328 | 32096 ft | 436 kts | 266° |
| 2026-05-07 05:12 | 40.75407 | -98.42246 | 32072 ft | 437 kts | 266° |
| 2026-05-07 05:13 | 40.74551 | -98.50126 | 32086 ft | 437 kts | 266° |
| 2026-05-07 05:13 | 40.73678 | -98.58058 | 32099 ft | 437 kts | 266° |
| 2026-05-07 05:14 | 40.72801 | -98.65993 | 32102 ft | 438 kts | 266° |
| 2026-05-07 05:14 | 40.71917 | -98.73929 | 32073 ft | 438 kts | 266° |
| 2026-05-07 05:15 | 40.71032 | -98.81812 | 32071 ft | 438 kts | 266° |
| 2026-05-07 05:15 | 40.70141 | -98.89756 | 32082 ft | 438 kts | 266° |
| 2026-05-07 05:16 | 40.69244 | -98.97696 | 32086 ft | 438 kts | 266° |
| 2026-05-07 05:16 | 40.68334 | -99.05639 | 32092 ft | 438 kts | 266° |
| 2026-05-07 05:17 | 40.67433 | -99.13520 | 32078 ft | 438 kts | 266° |
| 2026-05-07 05:17 | 40.66517 | -99.21458 | 32096 ft | 438 kts | 266° |
| 2026-05-07 05:18 | 40.65600 | -99.29397 | 32109 ft | 439 kts | 266° |
| 2026-05-07 05:18 | 40.64673 | -99.37336 | 32114 ft | 438 kts | 266° |
| 2026-05-07 05:19 | 40.63746 | -99.45220 | 32130 ft | 439 kts | 266° |
| 2026-05-07 05:19 | 40.62808 | -99.53150 | 32101 ft | 438 kts | 266° |
| 2026-05-07 05:20 | 40.61862 | -99.61091 | 32116 ft | 439 kts | 266° |
| 2026-05-07 05:20 | 40.60911 | -99.69033 | 32123 ft | 439 kts | 266° |
| 2026-05-07 05:21 | 40.59470 | -99.80904 | 32126 ft | 440 kts | 266° |
| 2026-05-07 05:22 | 40.58507 | -99.88850 | 32111 ft | 440 kts | 266° |
| 2026-05-07 05:22 | 40.57544 | -99.96799 | 32116 ft | 440 kts | 266° |
| 2026-05-07 05:23 | 40.56577 | -100.04705 | 32117 ft | 441 kts | 266° |
| 2026-05-07 05:23 | 40.55588 | -100.12664 | 32130 ft | 442 kts | 266° |
| 2026-05-07 05:24 | 40.54593 | -100.20630 | 32101 ft | 441 kts | 266° |
| 2026-05-07 05:24 | 40.53596 | -100.28600 | 32110 ft | 441 kts | 266° |
| 2026-05-07 05:25 | 40.52603 | -100.36512 | 32125 ft | 442 kts | 266° |
| 2026-05-07 05:25 | 40.51600 | -100.44473 | 32123 ft | 442 kts | 266° |
| 2026-05-07 05:26 | 40.50585 | -100.52443 | 32130 ft | 442 kts | 266° |
| 2026-05-07 05:26 | 40.49564 | -100.60423 | 32099 ft | 443 kts | 266° |
| 2026-05-07 05:27 | 40.48531 | -100.68420 | 32107 ft | 445 kts | 266° |
| 2026-05-07 05:27 | 40.47501 | -100.76370 | 32120 ft | 445 kts | 266° |
| 2026-05-07 05:28 | 40.46456 | -100.84392 | 32129 ft | 445 kts | 266° |
| 2026-05-07 05:28 | 40.45405 | -100.92408 | 32136 ft | 446 kts | 266° |
| 2026-05-07 05:29 | 40.44336 | -101.00424 | 32140 ft | 446 kts | 266° |
| 2026-05-07 05:29 | 40.43251 | -101.08379 | 32144 ft | 446 kts | 266° |
| 2026-05-07 05:30 | 40.42165 | -101.16378 | 32139 ft | 446 kts | 266° |
| 2026-05-07 05:30 | 40.41074 | -101.24389 | 32140 ft | 446 kts | 266° |
| 2026-05-07 05:31 | 40.39972 | -101.32389 | 32091 ft | 446 kts | 266° |
| 2026-05-07 05:31 | 40.38875 | -101.40353 | 32092 ft | 447 kts | 266° |
| 2026-05-07 05:32 | 40.37761 | -101.48380 | 32093 ft | 448 kts | 266° |
| 2026-05-07 05:32 | 40.36639 | -101.56408 | 32094 ft | 448 kts | 266° |
| 2026-05-07 05:33 | 40.35513 | -101.64438 | 32104 ft | 448 kts | 266° |
| 2026-05-07 05:33 | 40.34381 | -101.72478 | 32069 ft | 449 kts | 266° |
| 2026-05-07 05:34 | 40.33249 | -101.80474 | 32092 ft | 450 kts | 266° |
| 2026-05-07 05:34 | 40.32095 | -101.88536 | 32112 ft | 450 kts | 266° |
| 2026-05-07 05:35 | 40.30942 | -101.96601 | 32114 ft | 451 kts | 266° |
| 2026-05-07 05:35 | 40.29785 | -102.04671 | 32115 ft | 451 kts | 266° |
| 2026-05-07 05:36 | 40.28626 | -102.12691 | 32127 ft | 452 kts | 266° |
| 2026-05-07 05:36 | 40.27450 | -102.20776 | 32135 ft | 452 kts | 266° |
| 2026-05-07 05:37 | 40.26264 | -102.28863 | 32137 ft | 452 kts | 265° |
| 2026-05-07 05:37 | 40.25070 | -102.36949 | 32151 ft | 452 kts | 265° |
| 2026-05-07 05:38 | 40.23876 | -102.44981 | 32132 ft | 453 kts | 265° |
| 2026-05-07 05:38 | 40.22678 | -102.53071 | 32135 ft | 453 kts | 265° |
| 2026-05-07 05:39 | 40.21473 | -102.61167 | 32134 ft | 454 kts | 265° |
| 2026-05-07 05:39 | 40.20257 | -102.69270 | 32149 ft | 454 kts | 265° |
| 2026-05-07 05:40 | 40.19042 | -102.77312 | 32132 ft | 454 kts | 265° |
| 2026-05-07 05:40 | 40.17824 | -102.85415 | 32146 ft | 454 kts | 264° |
| 2026-05-07 05:41 | 40.16589 | -102.93514 | 32160 ft | 454 kts | 264° |
| 2026-05-07 05:41 | 40.15345 | -103.01618 | 32168 ft | 455 kts | 264° |
| 2026-05-07 05:42 | 40.14099 | -103.09717 | 32169 ft | 455 kts | 264° |
| 2026-05-07 05:42 | 40.12858 | -103.17759 | 32103 ft | 454 kts | 264° |
| 2026-05-07 05:43 | 40.11606 | -103.25845 | 32108 ft | 454 kts | 264° |
| 2026-05-07 05:43 | 40.10338 | -103.33934 | 32118 ft | 455 kts | 264° |
| 2026-05-07 05:44 | 40.09068 | -103.42023 | 32135 ft | 455 kts | 264° |
| 2026-05-07 05:44 | 40.07811 | -103.50056 | 32110 ft | 455 kts | 264° |
| 2026-05-07 05:45 | 40.06533 | -103.58152 | 32141 ft | 455 kts | 263° |
| 2026-05-07 05:45 | 40.05243 | -103.66242 | 32144 ft | 456 kts | 263° |
| 2026-05-07 05:46 | 40.03947 | -103.74334 | 32147 ft | 455 kts | 263° |
| 2026-05-07 05:46 | 40.02655 | -103.82372 | 32154 ft | 455 kts | 263° |
| 2026-05-07 05:47 | 40.01359 | -103.90456 | 32127 ft | 455 kts | 263° |
| 2026-05-07 05:47 | 40.00052 | -103.98541 | 32136 ft | 456 kts | 263° |
| 2026-05-07 05:48 | 39.98735 | -104.06622 | 32139 ft | 456 kts | 263° |
| 2026-05-07 05:48 | 39.97401 | -104.14705 | 32149 ft | 456 kts | 263° |
| 2026-05-07 05:49 | 39.96097 | -104.22608 | 32142 ft | 456 kts | 263° |
| 2026-05-07 05:49 | 39.94773 | -104.30685 | 32151 ft | 456 kts | 263° |
| 2026-05-07 05:50 | 39.93440 | -104.38766 | 32152 ft | 456 kts | 263° |
| 2026-05-07 05:50 | 39.92096 | -104.46830 | 32151 ft | 456 kts | 263° |
| 2026-05-07 05:51 | 39.90743 | -104.54888 | 32154 ft | 456 kts | 263° |
| 2026-05-07 05:51 | 39.89393 | -104.62893 | 32161 ft | 456 kts | 262° |
| 2026-05-07 05:52 | 39.87925 | -104.70924 | 32155 ft | 456 kts | 261° |
| 2026-05-07 05:52 | 39.86356 | -104.78925 | 32154 ft | 456 kts | 261° |
| 2026-05-07 05:53 | 39.84801 | -104.86883 | 32157 ft | 456 kts | 261° |
| 2026-05-07 05:53 | 39.83265 | -104.94887 | 32137 ft | 456 kts | 261° |
| 2026-05-07 05:54 | 39.81723 | -105.02894 | 32132 ft | 456 kts | 261° |
| 2026-05-07 05:54 | 39.80177 | -105.10911 | 32130 ft | 457 kts | 261° |
| 2026-05-07 05:55 | 39.78658 | -105.18712 | 32141 ft | 457 kts | 261° |
| 2026-05-07 05:55 | 39.77105 | -105.26662 | 32142 ft | 457 kts | 261° |
| 2026-05-07 05:56 | 39.75534 | -105.34673 | 32131 ft | 458 kts | 261° |
| 2026-05-07 05:56 | 39.73957 | -105.42687 | 32144 ft | 458 kts | 261° |
| 2026-05-07 05:57 | 39.72373 | -105.50708 | 32185 ft | 459 kts | 261° |
| 2026-05-07 05:57 | 39.70795 | -105.58670 | 32191 ft | 459 kts | 261° |
| 2026-05-07 05:58 | 39.69195 | -105.66689 | 32192 ft | 458 kts | 260° |
| 2026-05-07 05:58 | 39.67591 | -105.74705 | 32219 ft | 459 kts | 260° |
| 2026-05-07 05:59 | 39.65981 | -105.82724 | 32263 ft | 459 kts | 260° |
| 2026-05-07 05:59 | 39.64373 | -105.90684 | 32265 ft | 459 kts | 260° |
| 2026-05-07 06:00 | 39.62754 | -105.98691 | 32285 ft | 459 kts | 260° |
| 2026-05-07 06:00 | 39.61129 | -106.06693 | 32278 ft | 459 kts | 260° |
| 2026-05-07 06:01 | 39.59497 | -106.14682 | 32287 ft | 458 kts | 260° |
| 2026-05-07 06:01 | 39.57862 | -106.22668 | 32291 ft | 458 kts | 259° |
| 2026-05-07 06:02 | 39.56235 | -106.30595 | 32295 ft | 459 kts | 259° |
| 2026-05-07 06:02 | 39.54585 | -106.38579 | 32273 ft | 458 kts | 259° |
| 2026-05-07 06:03 | 39.52925 | -106.46560 | 32282 ft | 459 kts | 259° |
| 2026-05-07 06:03 | 39.51272 | -106.54545 | 32285 ft | 459 kts | 259° |
| 2026-05-07 06:04 | 39.49623 | -106.62479 | 32287 ft | 460 kts | 259° |
| 2026-05-07 06:04 | 39.47951 | -106.70477 | 32276 ft | 460 kts | 259° |
| 2026-05-07 06:05 | 39.46270 | -106.78456 | 32277 ft | 460 kts | 260° |
| 2026-05-07 06:05 | 39.44586 | -106.86380 | 32278 ft | 459 kts | 259° |
| 2026-05-07 06:06 | 39.42819 | -106.94317 | 32293 ft | 460 kts | 258° |
| 2026-05-07 06:06 | 39.40839 | -107.02197 | 32289 ft | 461 kts | 256° |
| 2026-05-07 06:07 | 39.38802 | -107.10062 | 32257 ft | 461 kts | 257° |
| 2026-05-07 06:07 | 39.36795 | -107.17941 | 32251 ft | 462 kts | 257° |
| 2026-05-07 06:08 | 39.34831 | -107.25781 | 32241 ft | 461 kts | 257° |
| 2026-05-07 06:08 | 39.32845 | -107.33665 | 32243 ft | 461 kts | 257° |
| 2026-05-07 06:09 | 39.30854 | -107.41534 | 32222 ft | 461 kts | 257° |
| 2026-05-07 06:09 | 39.28849 | -107.49402 | 32228 ft | 461 kts | 257° |
| 2026-05-07 06:10 | 39.26855 | -107.57208 | 32244 ft | 462 kts | 257° |
| 2026-05-07 06:10 | 39.24834 | -107.65072 | 32241 ft | 461 kts | 257° |
| 2026-05-07 06:11 | 39.22819 | -107.72930 | 32241 ft | 462 kts | 257° |
| 2026-05-07 06:11 | 39.20795 | -107.80802 | 32218 ft | 462 kts | 257° |
| 2026-05-07 06:12 | 39.18773 | -107.88618 | 32206 ft | 463 kts | 257° |
| 2026-05-07 06:12 | 39.16725 | -107.96490 | 32214 ft | 463 kts | 257° |
| 2026-05-07 06:13 | 39.14668 | -108.04362 | 32209 ft | 463 kts | 256° |
| 2026-05-07 06:13 | 39.12617 | -108.12231 | 32215 ft | 464 kts | 257° |
| 2026-05-07 06:14 | 39.10579 | -108.20048 | 32223 ft | 464 kts | 256° |
| 2026-05-07 06:14 | 39.08514 | -108.27910 | 32232 ft | 464 kts | 256° |
| 2026-05-07 06:15 | 39.06437 | -108.35772 | 32239 ft | 464 kts | 256° |
| 2026-05-07 06:15 | 39.04356 | -108.43628 | 32228 ft | 464 kts | 256° |
| 2026-05-07 06:16 | 39.02287 | -108.51427 | 32234 ft | 464 kts | 256° |
| 2026-05-07 06:16 | 39.00196 | -108.59280 | 32235 ft | 464 kts | 256° |
| 2026-05-07 06:17 | 38.98099 | -108.67132 | 32224 ft | 464 kts | 256° |
| 2026-05-07 06:17 | 38.95998 | -108.74981 | 32212 ft | 464 kts | 256° |
| 2026-05-07 06:18 | 38.93911 | -108.82779 | 32158 ft | 465 kts | 256° |
| 2026-05-07 06:18 | 38.91803 | -108.90619 | 32164 ft | 465 kts | 256° |
| 2026-05-07 06:19 | 38.89683 | -108.98465 | 32149 ft | 465 kts | 255° |
| 2026-05-07 06:19 | 38.87914 | -109.04982 | 32154 ft | 466 kts | 255° |
| 2026-05-07 06:20 | 38.85432 | -109.14103 | 32141 ft | 466 kts | 255° |
| 2026-05-07 06:20 | 38.83293 | -109.21954 | 32141 ft | 466 kts | 255° |
| 2026-05-07 06:21 | 38.81137 | -109.29808 | 32144 ft | 467 kts | 255° |
| 2026-05-07 06:21 | 38.79346 | -109.36329 | 32160 ft | 467 kts | 255° |
| 2026-05-07 06:22 | 38.77190 | -109.44197 | 32161 ft | 467 kts | 255° |
| 2026-05-07 06:22 | 38.73935 | -109.55969 | 32140 ft | 468 kts | 255° |
| 2026-05-07 06:23 | 38.71769 | -109.63768 | 32147 ft | 468 kts | 255° |
| 2026-05-07 06:23 | 38.69588 | -109.71616 | 32216 ft | 468 kts | 255° |
| 2026-05-07 06:24 | 38.67046 | -109.80738 | 32133 ft | 468 kts | 255° |
| 2026-05-07 06:24 | 38.65209 | -109.87316 | 32138 ft | 469 kts | 255° |
| 2026-05-07 06:25 | 38.63022 | -109.95112 | 32131 ft | 469 kts | 255° |
| 2026-05-07 06:25 | 38.60814 | -110.02960 | 32140 ft | 469 kts | 255° |
| 2026-05-07 06:26 | 38.58596 | -110.10803 | 32145 ft | 469 kts | 255° |
| 2026-05-07 06:26 | 38.56374 | -110.18643 | 32132 ft | 469 kts | 254° |
| 2026-05-07 06:27 | 38.54168 | -110.26429 | 32138 ft | 469 kts | 254° |
| 2026-05-07 06:27 | 38.51942 | -110.34256 | 32141 ft | 469 kts | 254° |
| 2026-05-07 06:28 | 38.49713 | -110.42078 | 32145 ft | 469 kts | 254° |
| 2026-05-07 06:28 | 38.47480 | -110.49899 | 32126 ft | 469 kts | 254° |
| 2026-05-07 06:29 | 38.45247 | -110.57645 | 32135 ft | 469 kts | 254° |
| 2026-05-07 06:29 | 38.42985 | -110.65440 | 32261 ft | 468 kts | 254° |
| 2026-05-07 06:30 | 38.39955 | -110.72846 | 32256 ft | 477 kts | 237° |
| 2026-05-07 06:30 | 38.35903 | -110.79569 | 32247 ft | 478 kts | 236° |
| 2026-05-07 06:31 | 38.31866 | -110.86235 | 32212 ft | 479 kts | 236° |
| 2026-05-07 06:31 | 38.27800 | -110.92940 | 32184 ft | 479 kts | 236° |
| 2026-05-07 06:32 | 38.23723 | -110.99649 | 32153 ft | 479 kts | 236° |
| 2026-05-07 06:32 | 38.19649 | -111.06355 | 32124 ft | 479 kts | 236° |
| 2026-05-07 06:33 | 38.15596 | -111.13006 | 32126 ft | 479 kts | 236° |
| 2026-05-07 06:33 | 38.11515 | -111.19695 | 32118 ft | 479 kts | 236° |
| 2026-05-07 06:34 | 38.07426 | -111.26373 | 32121 ft | 479 kts | 236° |
| 2026-05-07 06:34 | 38.03328 | -111.33048 | 32115 ft | 480 kts | 236° |
| 2026-05-07 06:35 | 37.99246 | -111.39672 | 32112 ft | 480 kts | 236° |
| 2026-05-07 06:35 | 37.95138 | -111.46339 | 32121 ft | 480 kts | 236° |
| 2026-05-07 06:36 | 37.91023 | -111.53016 | 32110 ft | 480 kts | 236° |
| 2026-05-07 06:36 | 37.86905 | -111.59679 | 32121 ft | 481 kts | 236° |
| 2026-05-07 06:37 | 37.82799 | -111.66294 | 32127 ft | 481 kts | 236° |
| 2026-05-07 06:37 | 37.78663 | -111.72943 | 32134 ft | 481 kts | 236° |
| 2026-05-07 06:38 | 37.74531 | -111.79591 | 32183 ft | 481 kts | 236° |
| 2026-05-07 06:38 | 37.70393 | -111.86231 | 32212 ft | 481 kts | 235° |
| 2026-05-07 06:39 | 37.66252 | -111.92866 | 32261 ft | 481 kts | 235° |
| 2026-05-07 06:39 | 37.62130 | -111.99446 | 32291 ft | 481 kts | 235° |
| 2026-05-07 06:40 | 37.57975 | -112.06068 | 32301 ft | 481 kts | 235° |
| 2026-05-07 06:40 | 37.53820 | -112.12681 | 32284 ft | 481 kts | 236° |
| 2026-05-07 06:41 | 37.50120 | -112.19659 | 32238 ft | 479 kts | 240° |
| 2026-05-07 06:41 | 37.46516 | -112.26643 | 32198 ft | 479 kts | 240° |
| 2026-05-07 06:42 | 37.42879 | -112.33665 | 32156 ft | 479 kts | 240° |
| 2026-05-07 06:42 | 37.39225 | -112.40689 | 32125 ft | 479 kts | 240° |
| 2026-05-07 06:43 | 37.35570 | -112.47701 | 32092 ft | 480 kts | 239° |
| 2026-05-07 06:43 | 37.31932 | -112.54676 | 32096 ft | 481 kts | 239° |
| 2026-05-07 06:44 | 37.28261 | -112.61698 | 32094 ft | 481 kts | 239° |
| 2026-05-07 06:44 | 37.24579 | -112.68713 | 32095 ft | 481 kts | 239° |
| 2026-05-07 06:45 | 37.20897 | -112.75720 | 32105 ft | 481 kts | 239° |
| 2026-05-07 06:45 | 37.17214 | -112.82732 | 32136 ft | 481 kts | 239° |
| 2026-05-07 06:46 | 37.13544 | -112.89693 | 32175 ft | 482 kts | 239° |
| 2026-05-07 06:46 | 37.09848 | -112.96687 | 32220 ft | 481 kts | 239° |
| 2026-05-07 06:47 | 37.06145 | -113.03677 | 32243 ft | 482 kts | 239° |
| 2026-05-07 06:47 | 37.02463 | -113.10616 | 32243 ft | 481 kts | 239° |
| 2026-05-07 06:48 | 36.98751 | -113.17592 | 32211 ft | 482 kts | 238° |
| 2026-05-07 06:48 | 36.95032 | -113.24564 | 32182 ft | 482 kts | 238° |
| 2026-05-07 06:49 | 36.91311 | -113.31537 | 32141 ft | 482 kts | 238° |
| 2026-05-07 06:49 | 36.87609 | -113.38464 | 32091 ft | 482 kts | 238° |
| 2026-05-07 06:50 | 36.83874 | -113.45429 | 31723 ft | 482 kts | 238° |
| 2026-05-07 06:50 | 36.81994 | -113.48932 | 30668 ft | 490 kts | 238° |
| 2026-05-07 06:50 | 36.80090 | -113.52479 | 29683 ft | 494 kts | 238° |
| 2026-05-07 06:51 | 36.78173 | -113.56046 | 28660 ft | 496 kts | 238° |
| 2026-05-07 06:51 | 36.76244 | -113.59637 | 27615 ft | 499 kts | 238° |
| 2026-05-07 06:51 | 36.74308 | -113.63247 | 26531 ft | 503 kts | 238° |
| 2026-05-07 06:51 | 36.72356 | -113.66882 | 25378 ft | 508 kts | 238° |
| 2026-05-07 06:52 | 36.70409 | -113.70507 | 24324 ft | 510 kts | 237° |
| 2026-05-07 06:52 | 36.68430 | -113.74184 | 23382 ft | 510 kts | 237° |
| 2026-05-07 06:52 | 36.66467 | -113.77819 | 22725 ft | 501 kts | 237° |
| 2026-05-07 06:52 | 36.64530 | -113.81402 | 21903 ft | 497 kts | 237° |
| 2026-05-07 06:53 | 36.62609 | -113.84949 | 21090 ft | 491 kts | 237° |
| 2026-05-07 06:53 | 36.60708 | -113.88451 | 20301 ft | 486 kts | 237° |
| 2026-05-07 06:53 | 36.58823 | -113.91915 | 19558 ft | 481 kts | 236° |
| 2026-05-07 06:53 | 36.56891 | -113.95293 | 18838 ft | 476 kts | 234° |
| 2026-05-07 06:54 | 36.54933 | -113.98510 | 18126 ft | 472 kts | 233° |
| 2026-05-07 06:54 | 36.52923 | -114.01681 | 17669 ft | 458 kts | 232° |
| 2026-05-07 06:54 | 36.50970 | -114.04709 | 17527 ft | 440 kts | 232° |
| 2026-05-07 06:54 | 36.49092 | -114.07632 | 17393 ft | 425 kts | 233° |
| 2026-05-07 06:55 | 36.47292 | -114.10466 | 17259 ft | 411 kts | 233° |
| 2026-05-07 06:55 | 36.45569 | -114.13214 | 17128 ft | 396 kts | 233° |
| 2026-05-07 06:55 | 36.43922 | -114.15863 | 16999 ft | 376 kts | 234° |
| 2026-05-07 06:55 | 36.42371 | -114.18365 | 16803 ft | 357 kts | 234° |
| 2026-05-07 06:56 | 36.40878 | -114.20773 | 16354 ft | 348 kts | 234° |
| 2026-05-07 06:56 | 36.39431 | -114.23105 | 15837 ft | 343 kts | 234° |
| 2026-05-07 06:56 | 36.37981 | -114.25418 | 15427 ft | 335 kts | 233° |
| 2026-05-07 06:56 | 36.36540 | -114.27687 | 15020 ft | 334 kts | 233° |
| 2026-05-07 06:57 | 36.35106 | -114.29929 | 14612 ft | 331 kts | 233° |
| 2026-05-07 06:57 | 36.33671 | -114.32170 | 14207 ft | 331 kts | 233° |
| 2026-05-07 06:57 | 36.32240 | -114.34409 | 13784 ft | 332 kts | 233° |
| 2026-05-07 06:57 | 36.30815 | -114.36637 | 13440 ft | 328 kts | 233° |
| 2026-05-07 06:58 | 36.29394 | -114.38861 | 12996 ft | 328 kts | 233° |
| 2026-05-07 06:58 | 36.27984 | -114.41070 | 12580 ft | 327 kts | 233° |
| 2026-05-07 06:58 | 36.26602 | -114.43234 | 12293 ft | 322 kts | 233° |
| 2026-05-07 06:58 | 36.25220 | -114.45396 | 11940 ft | 320 kts | 233° |
| 2026-05-07 06:59 | 36.23834 | -114.47541 | 11559 ft | 318 kts | 232° |
| 2026-05-07 06:59 | 36.22450 | -114.49668 | 11213 ft | 315 kts | 232° |
| 2026-05-07 06:59 | 36.21081 | -114.51759 | 10777 ft | 311 kts | 232° |
| 2026-05-07 06:59 | 36.19722 | -114.53828 | 10332 ft | 308 kts | 232° |
| 2026-05-07 07:00 | 36.18378 | -114.55873 | 9945 ft | 305 kts | 232° |
| 2026-05-07 07:00 | 36.17046 | -114.57904 | 9511 ft | 302 kts | 233° |
| 2026-05-07 07:00 | 36.15745 | -114.59889 | 9032 ft | 300 kts | 232° |
| 2026-05-07 07:00 | 36.14445 | -114.61875 | 8759 ft | 293 kts | 232° |
| 2026-05-07 07:01 | 36.13156 | -114.63844 | 8563 ft | 295 kts | 232° |
| 2026-05-07 07:01 | 36.11870 | -114.65808 | 8382 ft | 292 kts | 232° |
| 2026-05-07 07:01 | 36.10619 | -114.67714 | 8275 ft | 278 kts | 232° |
| 2026-05-07 07:01 | 36.09428 | -114.69527 | 8166 ft | 266 kts | 232° |
| 2026-05-07 07:02 | 36.08283 | -114.71297 | 8060 ft | 262 kts | 237° |
| 2026-05-07 07:02 | 36.07505 | -114.73305 | 7938 ft | 259 kts | 257° |
| 2026-05-07 07:02 | 36.07283 | -114.75499 | 7636 ft | 256 kts | 271° |
| 2026-05-07 07:02 | 36.07306 | -114.77675 | 7334 ft | 255 kts | 273° |
| 2026-05-07 07:03 | 36.07333 | -114.79834 | 7020 ft | 254 kts | 272° |
| 2026-05-07 07:03 | 36.07341 | -114.82017 | 6705 ft | 254 kts | 272° |
| 2026-05-07 07:03 | 36.07344 | -114.84200 | 6384 ft | 253 kts | 272° |
| 2026-05-07 07:03 | 36.07348 | -114.86369 | 6055 ft | 252 kts | 272° |
| 2026-05-07 07:04 | 36.07350 | -114.88541 | 5723 ft | 253 kts | 271° |
| 2026-05-07 07:04 | 36.07356 | -114.90699 | 5423 ft | 249 kts | 272° |
| 2026-05-07 07:04 | 36.07358 | -114.92831 | 5075 ft | 246 kts | 272° |
| 2026-05-07 07:04 | 36.07361 | -114.94993 | 4778 ft | 231 kts | 271° |
| 2026-05-07 07:05 | 36.07361 | -114.96802 | 4489 ft | 215 kts | 271° |
| 2026-05-07 07:05 | 36.07361 | -114.98557 | 4217 ft | 199 kts | 272° |
| 2026-05-07 07:05 | 36.07363 | -115.00209 | 3980 ft | 186 kts | 272° |
| 2026-05-07 07:05 | 36.07364 | -115.01732 | 3789 ft | 170 kts | 270° |
| 2026-05-07 07:06 | 36.07365 | -115.03142 | 3571 ft | 161 kts | 270° |
| 2026-05-07 07:06 | 36.07365 | -115.04515 | 3371 ft | 159 kts | 270° |
| 2026-05-07 07:06 | 36.07366 | -115.05873 | 3179 ft | 157 kts | 270° |
| 2026-05-07 07:06 | 36.07366 | -115.07216 | 2980 ft | 156 kts | 270° |
| 2026-05-07 07:07 | 36.07363 | -115.08549 | 2806 ft | 154 kts | 269° |
| 2026-05-07 07:07 | 36.07377 | -115.09866 | 2574 ft | 152 kts | 269° |
| 2026-05-07 07:07 | 36.07370 | -115.11150 | 2379 ft | 151 kts | 268° |
| 2026-05-07 07:07 | 36.07370 | -115.12446 | 2137 ft | 150 kts | 269° |
| 2026-05-07 07:08 | 36.07369 | -115.13677 | 2076 ft | 129 kts | 269° |
| 2026-05-07 07:08 | 36.07368 | -115.14467 | 2091 ft | 54 kts | 270° |
| 2026-05-07 07:08 | 36.07385 | -115.14816 | 2095 ft | 29 kts | 284° |
| 2026-05-07 07:08 | 36.07458 | -115.15025 | 2098 ft | 23 kts | 300° |
| 2026-05-07 07:09 | 36.07550 | -115.15145 | 2105 ft | 17 kts | 330° |
| 2026-05-07 07:09 | 36.07643 | -115.15198 | 2112 ft | 14 kts | 335° |
| 2026-05-07 07:09 | 36.07738 | -115.15252 | 2106 ft | 18 kts | 335° |
| 2026-05-07 07:09 | 36.07861 | -115.15325 | 2100 ft | 22 kts | 333° |
| 2026-05-07 07:10 | 36.07999 | -115.15406 | 2098 ft | 22 kts | 335° |
| 2026-05-07 07:10 | 36.08131 | -115.15480 | 2098 ft | 21 kts | 334° |
| 2026-05-07 07:10 | 36.08260 | -115.15558 | 2099 ft | 21 kts | 334° |
| 2026-05-07 07:10 | 36.08392 | -115.15632 | 2101 ft | 21 kts | 335° |
| 2026-05-07 07:11 | 36.08499 | -115.15647 | 2102 ft | 15 kts | 36° |
| 2026-05-07 07:11 | 36.08594 | -115.15582 | 2099 ft | 17 kts | 26° |
| 2026-05-07 07:11 | 36.08648 | -115.15498 | 2098 ft | 8 kts | 136° |
| 2026-05-07 07:11 | 36.08604 | -115.15493 | 2098 ft | 7 kts | 154° |
| 2026-05-07 07:12 | 36.08579 | -115.15471 | 2098 ft | 1 kts | 146° |
| 2026-05-07 07:12 | 36.08570 | -115.15464 | 2098 ft | 1 kts | 146° |